sensor_id;sensor_type;location;lat;lon;timestamp;temperature;humidity
70851;DHT22;58475;49.662;9.636;2022-08-18T00:04:40;18.29;77.73
70851;DHT22;58475;49.662;9.636;2022-08-18T00:07:15;18.33;77.55
70851;DHT22;58475;49.662;9.636;2022-08-18T00:09:41;18.41;76.06
70851;DHT22;58475;49.662;9.636;2022-08-18T00:12:13;18.37;75.47
70851;DHT22;58475;49.662;9.636;2022-08-18T00:14:39;18.27;76.57
70851;DHT22;58475;49.662;9.636;2022-08-18T00:17:04;18.34;76.76
70851;DHT22;58475;49.662;9.636;2022-08-18T00:19:29;18.57;75.68
70851;DHT22;58475;49.662;9.636;2022-08-18T00:21:55;18.51;76.34
70851;DHT22;58475;49.662;9.636;2022-08-18T00:24:20;18.63;76.88
70851;DHT22;58475;49.662;9.636;2022-08-18T00:26:45;18.67;76.21
70851;DHT22;58475;49.662;9.636;2022-08-18T00:29:11;18.63;76.13
70851;DHT22;58475;49.662;9.636;2022-08-18T00:31:36;18.78;76.36
70851;DHT22;58475;49.662;9.636;2022-08-18T00:34:02;18.83;77.12
70851;DHT22;58475;49.662;9.636;2022-08-18T00:36:27;18.92;77.04
70851;DHT22;58475;49.662;9.636;2022-08-18T00:38:53;18.94;78.39
70851;DHT22;58475;49.662;9.636;2022-08-18T00:41:19;18.91;79.20
70851;DHT22;58475;49.662;9.636;2022-08-18T00:43:48;19.20;77.09
70851;DHT22;58475;49.662;9.636;2022-08-18T00:46:20;20.04;73.60
70851;DHT22;58475;49.662;9.636;2022-08-18T00:48:46;20.18;73.70
70851;DHT22;58475;49.662;9.636;2022-08-18T00:51:26;20.72;71.42
70851;DHT22;58475;49.662;9.636;2022-08-18T00:54:02;20.93;71.12
70851;DHT22;58475;49.662;9.636;2022-08-18T00:56:36;21.26;69.68
70851;DHT22;58475;49.662;9.636;2022-08-18T00:59:24;21.31;69.59
70851;DHT22;58475;49.662;9.636;2022-08-18T01:01:52;21.41;69.02
70851;DHT22;58475;49.662;9.636;2022-08-18T01:04:33;21.48;68.57
70851;DHT22;58475;49.662;9.636;2022-08-18T01:07:05;21.57;68.60
70851;DHT22;58475;49.662;9.636;2022-08-18T01:09:32;21.57;68.44
70851;DHT22;58475;49.662;9.636;2022-08-18T01:11:57;21.48;68.63
70851;DHT22;58475;49.662;9.636;2022-08-18T01:14:23;21.55;68.63
70851;DHT22;58475;49.662;9.636;2022-08-18T01:16:49;21.55;68.45
70851;DHT22;58475;49.662;9.636;2022-08-18T01:19:34;21.64;68.15
70851;DHT22;58475;49.662;9.636;2022-08-18T01:22:27;21.66;68.13
70851;DHT22;58475;49.662;9.636;2022-08-18T01:24:56;21.61;68.36
70851;DHT22;58475;49.662;9.636;2022-08-18T01:27:41;21.61;68.24
70851;DHT22;58475;49.662;9.636;2022-08-18T01:30:11;21.61;68.32
70851;DHT22;58475;49.662;9.636;2022-08-18T01:32:37;21.61;68.40
70851;DHT22;58475;49.662;9.636;2022-08-18T01:35:05;21.61;68.34
70851;DHT22;58475;49.662;9.636;2022-08-18T01:37:33;21.59;68.58
70851;DHT22;58475;49.662;9.636;2022-08-18T01:39:59;21.65;68.30
70851;DHT22;58475;49.662;9.636;2022-08-18T01:42:24;21.65;68.26
70851;DHT22;58475;49.662;9.636;2022-08-18T01:44:50;21.61;68.50
70851;DHT22;58475;49.662;9.636;2022-08-18T01:47:16;21.61;68.36
70851;DHT22;58475;49.662;9.636;2022-08-18T01:49:43;21.58;68.67
70851;DHT22;58475;49.662;9.636;2022-08-18T01:52:10;21.58;68.75
70851;DHT22;58475;49.662;9.636;2022-08-18T01:54:37;21.58;68.58
70851;DHT22;58475;49.662;9.636;2022-08-18T01:57:05;21.59;68.60
70851;DHT22;58475;49.662;9.636;2022-08-18T01:59:30;21.61;68.45
70851;DHT22;58475;49.662;9.636;2022-08-18T02:01:56;21.61;68.47
70851;DHT22;58475;49.662;9.636;2022-08-18T02:04:27;21.69;68.25
70851;DHT22;58475;49.662;9.636;2022-08-18T02:06:53;21.64;68.57
70851;DHT22;58475;49.662;9.636;2022-08-18T02:09:20;21.55;69.21
70851;DHT22;58475;49.662;9.636;2022-08-18T02:11:46;21.58;68.95
70851;DHT22;58475;49.662;9.636;2022-08-18T02:14:12;21.55;69.33
70851;DHT22;58475;49.662;9.636;2022-08-18T02:16:37;21.45;70.57
70851;DHT22;58475;49.662;9.636;2022-08-18T02:19:02;21.35;71.15
70851;DHT22;58475;49.662;9.636;2022-08-18T02:21:28;21.20;73.03
70851;DHT22;58475;49.662;9.636;2022-08-18T02:23:53;21.10;73.55
70851;DHT22;58475;49.662;9.636;2022-08-18T02:26:19;20.96;74.54
70851;DHT22;58475;49.662;9.636;2022-08-18T02:28:44;20.87;74.99
70851;DHT22;58475;49.662;9.636;2022-08-18T02:31:19;20.79;74.75
70851;DHT22;58475;49.662;9.636;2022-08-18T02:33:46;20.75;75.56
70851;DHT22;58475;49.662;9.636;2022-08-18T02:36:13;20.68;75.48
70851;DHT22;58475;49.662;9.636;2022-08-18T02:38:39;20.57;77.54
70851;DHT22;58475;49.662;9.636;2022-08-18T02:41:07;20.41;77.65
70851;DHT22;58475;49.662;9.636;2022-08-18T02:43:34;20.34;77.71
70851;DHT22;58475;49.662;9.636;2022-08-18T02:46:00;20.26;78.31
70851;DHT22;58475;49.662;9.636;2022-08-18T02:48:25;20.25;77.54
70851;DHT22;58475;49.662;9.636;2022-08-18T02:51:08;20.25;78.42
70851;DHT22;58475;49.662;9.636;2022-08-18T02:53:37;20.18;78.28
70851;DHT22;58475;49.662;9.636;2022-08-18T02:56:08;20.49;74.61
70851;DHT22;58475;49.662;9.636;2022-08-18T02:59:00;20.48;76.21
70851;DHT22;58475;49.662;9.636;2022-08-18T03:01:32;20.26;78.27
70851;DHT22;58475;49.662;9.636;2022-08-18T03:03:58;20.28;77.27
70851;DHT22;58475;49.662;9.636;2022-08-18T03:06:25;20.24;78.59
70851;DHT22;58475;49.662;9.636;2022-08-18T03:08:52;20.13;78.71
70851;DHT22;58475;49.662;9.636;2022-08-18T03:11:24;20.17;79.51
70851;DHT22;58475;49.662;9.636;2022-08-18T03:13:50;20.13;79.99
70851;DHT22;58475;49.662;9.636;2022-08-18T03:16:16;20.07;80.92
70851;DHT22;58475;49.662;9.636;2022-08-18T03:18:43;20.00;81.49
70851;DHT22;58475;49.662;9.636;2022-08-18T03:21:16;19.91;82.07
70851;DHT22;58475;49.662;9.636;2022-08-18T03:23:41;19.90;81.61
70851;DHT22;58475;49.662;9.636;2022-08-18T03:26:14;19.83;82.69
70851;DHT22;58475;49.662;9.636;2022-08-18T03:28:42;19.74;82.18
70851;DHT22;58475;49.662;9.636;2022-08-18T03:31:09;19.73;83.27
70851;DHT22;58475;49.662;9.636;2022-08-18T03:33:34;19.75;82.06
70851;DHT22;58475;49.662;9.636;2022-08-18T03:36:05;19.73;81.66
70851;DHT22;58475;49.662;9.636;2022-08-18T03:38:30;19.75;82.06
70851;DHT22;58475;49.662;9.636;2022-08-18T03:40:56;19.69;81.95
70851;DHT22;58475;49.662;9.636;2022-08-18T03:43:21;19.71;81.61
70851;DHT22;58475;49.662;9.636;2022-08-18T03:45:46;19.67;82.35
70851;DHT22;58475;49.662;9.636;2022-08-18T03:48:12;19.73;82.51
70851;DHT22;58475;49.662;9.636;2022-08-18T03:50:37;19.67;81.97
70851;DHT22;58475;49.662;9.636;2022-08-18T03:53:03;19.53;82.62
70851;DHT22;58475;49.662;9.636;2022-08-18T03:55:30;19.64;82.41
70851;DHT22;58475;49.662;9.636;2022-08-18T03:58:01;19.59;82.74
70851;DHT22;58475;49.662;9.636;2022-08-18T04:00:31;19.52;82.65
70851;DHT22;58475;49.662;9.636;2022-08-18T04:03:00;19.50;82.84
70851;DHT22;58475;49.662;9.636;2022-08-18T04:05:26;19.50;82.24
70851;DHT22;58475;49.662;9.636;2022-08-18T04:07:54;19.52;83.45
70851;DHT22;58475;49.662;9.636;2022-08-18T04:10:19;19.54;81.90
70851;DHT22;58475;49.662;9.636;2022-08-18T04:12:45;19.53;81.60
70851;DHT22;58475;49.662;9.636;2022-08-18T04:15:10;19.53;80.91
70851;DHT22;58475;49.662;9.636;2022-08-18T04:17:36;19.62;82.30
70851;DHT22;58475;49.662;9.636;2022-08-18T04:20:01;19.62;81.68
70851;DHT22;58475;49.662;9.636;2022-08-18T04:22:27;19.70;81.75
70851;DHT22;58475;49.662;9.636;2022-08-18T04:24:53;19.66;81.77
70851;DHT22;58475;49.662;9.636;2022-08-18T04:27:20;19.71;81.16
70851;DHT22;58475;49.662;9.636;2022-08-18T04:29:46;19.67;79.55
70851;DHT22;58475;49.662;9.636;2022-08-18T04:32:12;19.73;79.73
70851;DHT22;58475;49.662;9.636;2022-08-18T04:34:37;19.60;81.29
70851;DHT22;58475;49.662;9.636;2022-08-18T04:37:03;19.60;81.59
70851;DHT22;58475;49.662;9.636;2022-08-18T04:39:29;19.70;78.45
70851;DHT22;58475;49.662;9.636;2022-08-18T04:41:54;19.67;79.74
70851;DHT22;58475;49.662;9.636;2022-08-18T04:44:20;19.56;80.14
70851;DHT22;58475;49.662;9.636;2022-08-18T04:46:48;19.59;80.23
70851;DHT22;58475;49.662;9.636;2022-08-18T04:49:15;19.52;80.18
70851;DHT22;58475;49.662;9.636;2022-08-18T04:51:44;19.53;79.47
70851;DHT22;58475;49.662;9.636;2022-08-18T04:54:32;19.50;79.77
70851;DHT22;58475;49.662;9.636;2022-08-18T04:57:06;19.59;80.04
70851;DHT22;58475;49.662;9.636;2022-08-18T04:59:31;19.52;81.51
70851;DHT22;58475;49.662;9.636;2022-08-18T05:02:00;19.56;80.54
70851;DHT22;58475;49.662;9.636;2022-08-18T05:04:26;19.50;81.76
70851;DHT22;58475;49.662;9.636;2022-08-18T05:06:53;19.47;83.36
70851;DHT22;58475;49.662;9.636;2022-08-18T05:09:18;19.46;80.49
70851;DHT22;58475;49.662;9.636;2022-08-18T05:11:44;19.47;82.65
70851;DHT22;58475;49.662;9.636;2022-08-18T05:14:10;19.46;83.47
70851;DHT22;58475;49.662;9.636;2022-08-18T05:16:36;19.46;84.01
70851;DHT22;58475;49.662;9.636;2022-08-18T05:19:03;19.35;84.25
70851;DHT22;58475;49.662;9.636;2022-08-18T05:21:29;19.25;84.27
70851;DHT22;58475;49.662;9.636;2022-08-18T05:23:55;19.33;84.08
70851;DHT22;58475;49.662;9.636;2022-08-18T05:26:21;19.42;82.03
70851;DHT22;58475;49.662;9.636;2022-08-18T05:28:46;19.26;83.58
70851;DHT22;58475;49.662;9.636;2022-08-18T05:31:24;19.39;82.71
70851;DHT22;58475;49.662;9.636;2022-08-18T05:33:50;19.46;84.34
70851;DHT22;58475;49.662;9.636;2022-08-18T05:36:25;19.49;84.43
70851;DHT22;58475;49.662;9.636;2022-08-18T05:38:58;19.52;82.36
70851;DHT22;58475;49.662;9.636;2022-08-18T05:41:29;19.59;84.43
70851;DHT22;58475;49.662;9.636;2022-08-18T05:43:58;19.66;82.21
70851;DHT22;58475;49.662;9.636;2022-08-18T05:46:36;19.62;83.26
70851;DHT22;58475;49.662;9.636;2022-08-18T05:49:03;19.49;83.60
70851;DHT22;58475;49.662;9.636;2022-08-18T05:51:34;19.62;83.68
70851;DHT22;58475;49.662;9.636;2022-08-18T05:54:01;19.67;84.07
70851;DHT22;58475;49.662;9.636;2022-08-18T05:56:50;19.64;83.71
70851;DHT22;58475;49.662;9.636;2022-08-18T05:59:30;19.64;83.87
70851;DHT22;58475;49.662;9.636;2022-08-18T06:02:15;19.75;83.78
70851;DHT22;58475;49.662;9.636;2022-08-18T06:04:51;19.75;84.12
70851;DHT22;58475;49.662;9.636;2022-08-18T06:07:27;19.71;83.39
70851;DHT22;58475;49.662;9.636;2022-08-18T06:09:54;19.74;83.40
70851;DHT22;58475;49.662;9.636;2022-08-18T06:12:32;19.63;83.67
70851;DHT22;58475;49.662;9.636;2022-08-18T06:21:10;19.87;82.80
70851;DHT22;58475;49.662;9.636;2022-08-18T06:23:59;19.91;82.73
70851;DHT22;58475;49.662;9.636;2022-08-18T06:26:48;20.00;81.99
70851;DHT22;58475;49.662;9.636;2022-08-18T06:37:51;20.42;79.71
70851;DHT22;58475;49.662;9.636;2022-08-18T06:40:39;20.61;79.63
70851;DHT22;58475;49.662;9.636;2022-08-18T06:43:08;20.92;78.72
70851;DHT22;58475;49.662;9.636;2022-08-18T06:45:36;21.35;77.96
70851;DHT22;58475;49.662;9.636;2022-08-18T06:50:36;21.83;75.99
70851;DHT22;58475;49.662;9.636;2022-08-18T06:53:05;22.22;74.88
70851;DHT22;58475;49.662;9.636;2022-08-18T06:55:37;21.89;74.70
70851;DHT22;58475;49.662;9.636;2022-08-18T06:58:27;21.79;75.58
70851;DHT22;58475;49.662;9.636;2022-08-18T07:00:59;21.68;75.24
70851;DHT22;58475;49.662;9.636;2022-08-18T07:03:41;21.41;76.14
70851;DHT22;58475;49.662;9.636;2022-08-18T07:06:30;21.19;76.68
70851;DHT22;58475;49.662;9.636;2022-08-18T07:09:19;21.13;76.93
70851;DHT22;58475;49.662;9.636;2022-08-18T07:12:08;21.00;77.49
70851;DHT22;58475;49.662;9.636;2022-08-18T07:14:49;21.00;77.87
70851;DHT22;58475;49.662;9.636;2022-08-18T07:17:25;21.04;78.06
70851;DHT22;58475;49.662;9.636;2022-08-18T07:22:59;20.90;78.72
70851;DHT22;58475;49.662;9.636;2022-08-18T07:25:37;20.80;79.60
70851;DHT22;58475;49.662;9.636;2022-08-18T07:28:03;20.75;79.66
70851;DHT22;58475;49.662;9.636;2022-08-18T07:30:32;20.77;78.62
70851;DHT22;58475;49.662;9.636;2022-08-18T07:35:37;20.76;78.53
70851;DHT22;58475;49.662;9.636;2022-08-18T07:38:45;20.71;79.06
70851;DHT22;58475;49.662;9.636;2022-08-18T07:41:25;20.57;79.85
70851;DHT22;58475;49.662;9.636;2022-08-18T07:44:16;20.57;80.51
70851;DHT22;58475;49.662;9.636;2022-08-18T07:49:27;20.61;81.15
70851;DHT22;58475;49.662;9.636;2022-08-18T07:52:13;20.63;81.71
70851;DHT22;58475;49.662;9.636;2022-08-18T07:54:58;20.77;81.10
70851;DHT22;58475;49.662;9.636;2022-08-18T07:57:44;20.82;80.14
70851;DHT22;58475;49.662;9.636;2022-08-18T08:00:24;20.90;78.99
70851;DHT22;58475;49.662;9.636;2022-08-18T08:03:09;21.10;78.99
70851;DHT22;58475;49.662;9.636;2022-08-18T08:08:42;21.31;78.85
70851;DHT22;58475;49.662;9.636;2022-08-18T08:11:10;21.31;78.85
70851;DHT22;58475;49.662;9.636;2022-08-18T08:13:52;21.40;78.36
70851;DHT22;58475;49.662;9.636;2022-08-18T08:19:25;21.35;76.44
70851;DHT22;58475;49.662;9.636;2022-08-18T08:25:07;21.38;76.84
70851;DHT22;58475;49.662;9.636;2022-08-18T08:31:09;21.47;76.75
70851;DHT22;58475;49.662;9.636;2022-08-18T08:33:34;21.52;76.92
70851;DHT22;58475;49.662;9.636;2022-08-18T08:38:47;21.89;76.02
70851;DHT22;58475;49.662;9.636;2022-08-18T08:41:40;21.86;75.77
70851;DHT22;58475;49.662;9.636;2022-08-18T08:44:33;21.89;74.97
70851;DHT22;58475;49.662;9.636;2022-08-18T08:47:24;21.98;75.37
70851;DHT22;58475;49.662;9.636;2022-08-18T08:50:00;21.88;75.45
70851;DHT22;58475;49.662;9.636;2022-08-18T08:52:41;21.89;75.66
70851;DHT22;58475;49.662;9.636;2022-08-18T08:55:16;21.79;75.52
70851;DHT22;58475;49.662;9.636;2022-08-18T08:58:02;21.85;75.27
70851;DHT22;58475;49.662;9.636;2022-08-18T09:00:34;22.01;74.96
70851;DHT22;58475;49.662;9.636;2022-08-18T09:12:04;22.09;75.53
70851;DHT22;58475;49.662;9.636;2022-08-18T09:17:40;21.95;75.94
70851;DHT22;58475;49.662;9.636;2022-08-18T09:20:38;21.83;75.85
70851;DHT22;58475;49.662;9.636;2022-08-18T09:23:12;21.92;75.87
70851;DHT22;58475;49.662;9.636;2022-08-18T09:30:57;22.23;75.29
70851;DHT22;58475;49.662;9.636;2022-08-18T09:38:54;22.29;74.86
70851;DHT22;58475;49.662;9.636;2022-08-18T09:42:01;22.03;75.41
70851;DHT22;58475;49.662;9.636;2022-08-18T09:44:56;22.12;74.84
70851;DHT22;58475;49.662;9.636;2022-08-18T09:49:54;22.20;75.47
70851;DHT22;58475;49.662;9.636;2022-08-18T09:57:30;21.93;76.94
70851;DHT22;58475;49.662;9.636;2022-08-18T10:10:58;22.09;75.34
70851;DHT22;58475;49.662;9.636;2022-08-18T10:13:49;22.08;74.96
70851;DHT22;58475;49.662;9.636;2022-08-18T10:16:46;22.23;74.86
70851;DHT22;58475;49.662;9.636;2022-08-18T10:24:29;23.25;72.18
70851;DHT22;58475;49.662;9.636;2022-08-18T10:27:02;23.42;71.93
70851;DHT22;58475;49.662;9.636;2022-08-18T10:39:50;23.73;70.64
70851;DHT22;58475;49.662;9.636;2022-08-18T10:44:59;25.54;66.14
70851;DHT22;58475;49.662;9.636;2022-08-18T10:47:27;26.40;64.77
70851;DHT22;58475;49.662;9.636;2022-08-18T10:49:53;26.52;63.28
70851;DHT22;58475;49.662;9.636;2022-08-18T10:55:29;27.38;61.90
70851;DHT22;58475;49.662;9.636;2022-08-18T10:58:14;27.08;61.29
70851;DHT22;58475;49.662;9.636;2022-08-18T11:06:25;27.61;57.62
70851;DHT22;58475;49.662;9.636;2022-08-18T11:08:57;27.39;57.15
70851;DHT22;58475;49.662;9.636;2022-08-18T11:11:34;27.44;57.13
70851;DHT22;58475;49.662;9.636;2022-08-18T11:14:11;27.67;57.30
70851;DHT22;58475;49.662;9.636;2022-08-18T11:19:49;28.02;54.99
70851;DHT22;58475;49.662;9.636;2022-08-18T11:22:29;27.78;57.35
70851;DHT22;58475;49.662;9.636;2022-08-18T11:24:56;27.35;58.76
70851;DHT22;58475;49.662;9.636;2022-08-18T11:27:25;28.45;56.66
70851;DHT22;58475;49.662;9.636;2022-08-18T11:29:51;27.97;58.00
70851;DHT22;58475;49.662;9.636;2022-08-18T11:32:36;28.36;57.16
70851;DHT22;58475;49.662;9.636;2022-08-18T11:35:10;27.70;58.49
70851;DHT22;58475;49.662;9.636;2022-08-18T11:42:55;27.86;57.05
70851;DHT22;58475;49.662;9.636;2022-08-18T11:45:24;26.76;59.91
70851;DHT22;58475;49.662;9.636;2022-08-18T11:48:17;25.60;61.18
70851;DHT22;58475;49.662;9.636;2022-08-18T11:56:43;25.63;63.18
70851;DHT22;58475;49.662;9.636;2022-08-18T11:59:03;25.46;63.91
70851;DHT22;58475;49.662;9.636;2022-08-18T12:04:06;25.50;64.05
70851;DHT22;58475;49.662;9.636;2022-08-18T12:06:33;25.48;64.30
70851;DHT22;58475;49.662;9.636;2022-08-18T12:09:14;25.51;64.18
70851;DHT22;58475;49.662;9.636;2022-08-18T12:11:56;25.71;63.99
70851;DHT22;58475;49.662;9.636;2022-08-18T12:14:25;26.06;63.29
70851;DHT22;58475;49.662;9.636;2022-08-18T12:16:51;26.31;61.80
70851;DHT22;58475;49.662;9.636;2022-08-18T12:19:17;27.11;59.76
70851;DHT22;58475;49.662;9.636;2022-08-18T12:21:50;27.27;59.01
70851;DHT22;58475;49.662;9.636;2022-08-18T12:24:25;27.00;59.24
70851;DHT22;58475;49.662;9.636;2022-08-18T12:26:51;27.44;58.33
70851;DHT22;58475;49.662;9.636;2022-08-18T12:29:18;27.66;57.07
70851;DHT22;58475;49.662;9.636;2022-08-18T12:31:44;27.30;56.91
70851;DHT22;58475;49.662;9.636;2022-08-18T12:34:10;27.48;56.88
70851;DHT22;58475;49.662;9.636;2022-08-18T12:36:35;28.27;55.89
70851;DHT22;58475;49.662;9.636;2022-08-18T12:39:02;28.12;56.10
70851;DHT22;58475;49.662;9.636;2022-08-18T12:41:27;28.65;55.70
70851;DHT22;58475;49.662;9.636;2022-08-18T12:43:53;29.34;53.31
70851;DHT22;58475;49.662;9.636;2022-08-18T12:46:19;28.96;53.07
70851;DHT22;58475;49.662;9.636;2022-08-18T12:48:47;28.79;53.43
70851;DHT22;58475;49.662;9.636;2022-08-18T12:51:15;28.68;54.60
70851;DHT22;58475;49.662;9.636;2022-08-18T12:53:41;29.25;53.20
70851;DHT22;58475;49.662;9.636;2022-08-18T12:58:42;29.05;53.28
70851;DHT22;58475;49.662;9.636;2022-08-18T13:01:08;28.67;52.51
70851;DHT22;58475;49.662;9.636;2022-08-18T13:03:34;27.94;52.88
70851;DHT22;58475;49.662;9.636;2022-08-18T13:05:59;28.81;50.67
70851;DHT22;58475;49.662;9.636;2022-08-18T13:08:24;29.25;50.76
70851;DHT22;58475;49.662;9.636;2022-08-18T13:10:50;29.60;49.65
70851;DHT22;58475;49.662;9.636;2022-08-18T13:13:17;29.09;51.06
70851;DHT22;58475;49.662;9.636;2022-08-18T13:15:44;28.78;50.15
70851;DHT22;58475;49.662;9.636;2022-08-18T13:18:10;29.22;51.31
70851;DHT22;58475;49.662;9.636;2022-08-18T13:20:36;28.92;50.52
70851;DHT22;58475;49.662;9.636;2022-08-18T13:23:02;28.85;50.93
70851;DHT22;58475;49.662;9.636;2022-08-18T13:25:27;29.01;50.36
70851;DHT22;58475;49.662;9.636;2022-08-18T13:27:52;28.69;50.90
70851;DHT22;58475;49.662;9.636;2022-08-18T13:30:21;29.23;50.45
70851;DHT22;58475;49.662;9.636;2022-08-18T13:32:47;29.53;49.31
70851;DHT22;58475;49.662;9.636;2022-08-18T13:35:13;29.90;49.49
70851;DHT22;58475;49.662;9.636;2022-08-18T13:37:39;29.34;49.89
70851;DHT22;58475;49.662;9.636;2022-08-18T13:40:06;29.27;50.14
70851;DHT22;58475;49.662;9.636;2022-08-18T13:42:40;29.13;50.73
70851;DHT22;58475;49.662;9.636;2022-08-18T13:45:06;28.95;50.92
70851;DHT22;58475;49.662;9.636;2022-08-18T13:47:32;29.34;50.58
70851;DHT22;58475;49.662;9.636;2022-08-18T13:49:59;28.74;51.48
70851;DHT22;58475;49.662;9.636;2022-08-18T13:52:24;29.06;50.16
70851;DHT22;58475;49.662;9.636;2022-08-18T13:54:50;29.26;50.45
70851;DHT22;58475;49.662;9.636;2022-08-18T13:57:16;28.27;50.14
70851;DHT22;58475;49.662;9.636;2022-08-18T13:59:41;28.21;50.92
70851;DHT22;58475;49.662;9.636;2022-08-18T14:02:08;28.45;50.73
70851;DHT22;58475;49.662;9.636;2022-08-18T14:04:35;28.55;50.56
70851;DHT22;58475;49.662;9.636;2022-08-18T14:07:00;28.55;50.02
70851;DHT22;58475;49.662;9.636;2022-08-18T14:09:27;28.54;50.18
70851;DHT22;58475;49.662;9.636;2022-08-18T14:11:53;28.71;50.14
70851;DHT22;58475;49.662;9.636;2022-08-18T14:14:18;28.87;49.76
70851;DHT22;58475;49.662;9.636;2022-08-18T14:16:44;28.94;49.52
70851;DHT22;58475;49.662;9.636;2022-08-18T14:19:12;30.00;48.48
70851;DHT22;58475;49.662;9.636;2022-08-18T14:21:56;29.11;49.12
70851;DHT22;58475;49.662;9.636;2022-08-18T14:24:43;29.26;49.52
70851;DHT22;58475;49.662;9.636;2022-08-18T14:27:32;29.70;47.93
70851;DHT22;58475;49.662;9.636;2022-08-18T14:30:10;29.84;47.77
70851;DHT22;58475;49.662;9.636;2022-08-18T14:32:36;29.39;48.43
70851;DHT22;58475;49.662;9.636;2022-08-18T14:35:04;29.11;48.98
70851;DHT22;58475;49.662;9.636;2022-08-18T14:37:30;28.75;49.20
70851;DHT22;58475;49.662;9.636;2022-08-18T14:39:56;29.32;48.92
70851;DHT22;58475;49.662;9.636;2022-08-18T14:42:22;29.32;47.86
70851;DHT22;58475;49.662;9.636;2022-08-18T14:44:47;29.96;47.53
70851;DHT22;58475;49.662;9.636;2022-08-18T14:47:13;30.08;47.12
70851;DHT22;58475;49.662;9.636;2022-08-18T14:49:39;29.37;48.48
70851;DHT22;58475;49.662;9.636;2022-08-18T14:52:06;29.57;48.11
70851;DHT22;58475;49.662;9.636;2022-08-18T14:54:32;29.69;48.13
70851;DHT22;58475;49.662;9.636;2022-08-18T14:56:59;29.30;48.39
70851;DHT22;58475;49.662;9.636;2022-08-18T14:59:30;28.99;48.52
70851;DHT22;58475;49.662;9.636;2022-08-18T15:01:57;29.02;48.08
70851;DHT22;58475;49.662;9.636;2022-08-18T15:04:22;28.57;47.98
70851;DHT22;58475;49.662;9.636;2022-08-18T15:06:48;28.95;49.66
70851;DHT22;58475;49.662;9.636;2022-08-18T15:09:14;28.60;49.56
70851;DHT22;58475;49.662;9.636;2022-08-18T15:11:39;28.68;49.90
70851;DHT22;58475;49.662;9.636;2022-08-18T15:14:05;28.07;50.05
70851;DHT22;58475;49.662;9.636;2022-08-18T15:16:30;28.20;50.13
70851;DHT22;58475;49.662;9.636;2022-08-18T15:18:59;28.24;49.63
70851;DHT22;58475;49.662;9.636;2022-08-18T15:21:24;28.95;49.46
70851;DHT22;58475;49.662;9.636;2022-08-18T15:24:08;28.37;48.92
70851;DHT22;58475;49.662;9.636;2022-08-18T15:26:54;28.74;48.74
70851;DHT22;58475;49.662;9.636;2022-08-18T15:29:20;28.78;48.83
70851;DHT22;58475;49.662;9.636;2022-08-18T15:31:46;29.03;49.40
70851;DHT22;58475;49.662;9.636;2022-08-18T15:34:11;28.61;49.56
70851;DHT22;58475;49.662;9.636;2022-08-18T15:36:37;28.48;49.06
70851;DHT22;58475;49.662;9.636;2022-08-18T15:39:03;28.68;50.65
70851;DHT22;58475;49.662;9.636;2022-08-18T15:41:35;28.85;49.27
70851;DHT22;58475;49.662;9.636;2022-08-18T15:44:03;28.65;48.60
70851;DHT22;58475;49.662;9.636;2022-08-18T15:46:33;28.33;50.24
70851;DHT22;58475;49.662;9.636;2022-08-18T15:48:59;28.30;50.12
70851;DHT22;58475;49.662;9.636;2022-08-18T15:51:25;28.45;49.80
70851;DHT22;58475;49.662;9.636;2022-08-18T15:53:51;28.16;50.78
70851;DHT22;58475;49.662;9.636;2022-08-18T15:56:21;28.40;50.01
70851;DHT22;58475;49.662;9.636;2022-08-18T15:58:47;28.57;50.13
70851;DHT22;58475;49.662;9.636;2022-08-18T16:01:14;28.13;51.30
70851;DHT22;58475;49.662;9.636;2022-08-18T16:03:39;27.82;51.26
70851;DHT22;58475;49.662;9.636;2022-08-18T16:06:05;27.89;51.35
70851;DHT22;58475;49.662;9.636;2022-08-18T16:08:32;27.96;51.37
70851;DHT22;58475;49.662;9.636;2022-08-18T16:11:05;27.65;51.53
70851;DHT22;58475;49.662;9.636;2022-08-18T16:13:31;27.67;52.79
70851;DHT22;58475;49.662;9.636;2022-08-18T16:15:56;27.92;53.19
70851;DHT22;58475;49.662;9.636;2022-08-18T16:18:21;27.48;54.06
70851;DHT22;58475;49.662;9.636;2022-08-18T16:20:47;27.31;54.33
70851;DHT22;58475;49.662;9.636;2022-08-18T16:23:13;27.12;54.28
70851;DHT22;58475;49.662;9.636;2022-08-18T16:25:41;26.91;55.29
70851;DHT22;58475;49.662;9.636;2022-08-18T16:28:07;27.31;55.25
70851;DHT22;58475;49.662;9.636;2022-08-18T16:30:33;27.08;55.32
70851;DHT22;58475;49.662;9.636;2022-08-18T16:33:00;26.82;55.86
70851;DHT22;58475;49.662;9.636;2022-08-18T16:35:27;26.80;55.91
70851;DHT22;58475;49.662;9.636;2022-08-18T16:37:53;26.79;56.01
70851;DHT22;58475;49.662;9.636;2022-08-18T16:40:18;26.63;55.93
70851;DHT22;58475;49.662;9.636;2022-08-18T16:42:45;26.39;56.71
70851;DHT22;58475;49.662;9.636;2022-08-18T16:45:11;26.46;56.60
70851;DHT22;58475;49.662;9.636;2022-08-18T16:47:36;26.22;56.53
70851;DHT22;58475;49.662;9.636;2022-08-18T16:50:08;26.21;56.83
70851;DHT22;58475;49.662;9.636;2022-08-18T16:52:35;26.14;56.52
70851;DHT22;58475;49.662;9.636;2022-08-18T16:55:01;26.22;56.17
70851;DHT22;58475;49.662;9.636;2022-08-18T16:57:27;26.18;56.42
70851;DHT22;58475;49.662;9.636;2022-08-18T17:00:11;26.18;56.26
70851;DHT22;58475;49.662;9.636;2022-08-18T17:02:55;26.12;56.27
70851;DHT22;58475;49.662;9.636;2022-08-18T17:05:39;25.82;56.60
70851;DHT22;58475;49.662;9.636;2022-08-18T17:08:05;25.80;56.65
70851;DHT22;58475;49.662;9.636;2022-08-18T17:10:31;25.95;56.37
70851;DHT22;58475;49.662;9.636;2022-08-18T17:13:03;26.14;56.53
70851;DHT22;58475;49.662;9.636;2022-08-18T17:15:29;26.24;56.09
70851;DHT22;58475;49.662;9.636;2022-08-18T17:17:55;25.99;56.39
70851;DHT22;58475;49.662;9.636;2022-08-18T17:20:20;25.78;56.65
70851;DHT22;58475;49.662;9.636;2022-08-18T17:22:46;25.51;57.11
70851;DHT22;58475;49.662;9.636;2022-08-18T17:25:15;25.38;57.07
70851;DHT22;58475;49.662;9.636;2022-08-18T17:27:43;25.44;57.01
70851;DHT22;58475;49.662;9.636;2022-08-18T17:30:20;25.33;57.46
70851;DHT22;58475;49.662;9.636;2022-08-18T17:32:54;25.12;57.63
70851;DHT22;58475;49.662;9.636;2022-08-18T17:35:32;25.17;57.41
70851;DHT22;58475;49.662;9.636;2022-08-18T17:38:09;24.92;57.82
70851;DHT22;58475;49.662;9.636;2022-08-18T17:40:48;24.88;57.88
70851;DHT22;58475;49.662;9.636;2022-08-18T17:43:16;24.85;58.26
70851;DHT22;58475;49.662;9.636;2022-08-18T17:45:43;24.73;57.96
70851;DHT22;58475;49.662;9.636;2022-08-18T17:48:16;24.64;57.58
70851;DHT22;58475;49.662;9.636;2022-08-18T17:54:10;24.52;58.07
70851;DHT22;58475;49.662;9.636;2022-08-18T17:56:43;24.37;58.35
70851;DHT22;58475;49.662;9.636;2022-08-18T17:59:12;24.42;58.36
70851;DHT22;58475;49.662;9.636;2022-08-18T18:01:39;24.31;58.53
70851;DHT22;58475;49.662;9.636;2022-08-18T18:04:07;24.27;58.86
70851;DHT22;58475;49.662;9.636;2022-08-18T18:06:35;24.28;58.70